Terminal Aerodrome Forecast
Issued by NWS El Paso, TX

Home | Current Version | Previous Version | Text Only | Print | Product List | Glossary On
Versions: 1 2 3 4 5 6 7 8 9 10 11 12 13 14 15
000
FTUS44 KEPZ 261720
TAFELP
TAF
KELP 261720Z 2618/2718 08011KT P6SM SCT060 BKN120
     FM262200 08014G22KT P6SM VCTS SCT050CB BKN150
      TEMPO 2700/2704 VRB25G40KT 1SM TSRA BKN015CB
     FM270600 07010KT P6SM VCSH SCT020 BKN080
      TEMPO 2710/2714 BKN020
     FM271400 09012G20KT P6SM VCSH BKN020 BKN050=

USA.gov is the U.S. government's official web portal to all federal, state and local government web resources and services.